createdAt,value
2022-10-26T00:02:05.801Z,7.55
2022-10-26T00:04:35.644Z,7.68
2022-10-26T00:07:02.434Z,7.70
2022-10-26T00:11:56.981Z,7.00
2022-10-26T00:14:24.230Z,8.48
2022-10-26T00:16:50.998Z,7.90
2022-10-26T00:21:44.623Z,6.60
2022-10-26T00:24:14.700Z,9.00
2022-10-26T00:26:41.415Z,7.75
2022-10-26T00:29:08.421Z,7.88
2022-10-26T00:31:35.176Z,6.95
2022-10-26T00:36:28.298Z,7.20
2022-10-26T00:41:27.217Z,7.40
2022-10-26T00:43:54.431Z,7.50
2022-10-26T00:46:36.042Z,7.47
2022-10-26T00:49:10.648Z,7.82
2022-10-26T00:51:42.912Z,7.97
2022-10-26T00:54:13.651Z,7.45
2022-10-26T00:56:41.242Z,7.95
2022-10-26T00:59:11.265Z,8.68
2022-10-26T01:01:40.980Z,7.22
2022-10-26T01:04:07.413Z,7.90
2022-10-26T01:06:36.652Z,6.68
2022-10-26T01:09:03.877Z,7.38
2022-10-26T01:11:30.579Z,7.60
2022-10-26T01:19:47.798Z,6.88
2022-10-26T01:22:40.450Z,6.60
2022-10-26T01:25:28.759Z,7.15
2022-10-26T01:27:56.256Z,7.07
2022-10-26T01:30:41.379Z,6.45
2022-10-26T01:33:29.690Z,7.10
2022-10-26T01:36:14.292Z,6.95
2022-10-26T01:39:09.735Z,7.50
2022-10-26T01:41:44.091Z,6.50
2022-10-26T01:44:18.980Z,6.72
2022-10-26T01:46:51.444Z,8.60
2022-10-26T01:49:22.780Z,6.65
2022-10-26T01:51:49.735Z,6.43
2022-10-26T01:54:16.587Z,6.60
2022-10-26T01:56:48.086Z,7.43
2022-10-26T01:59:26.928Z,6.28
2022-10-26T02:02:26.824Z,6.25
2022-10-26T02:05:19.951Z,6.22
2022-10-26T02:08:12.487Z,6.80
2022-10-26T02:10:47.882Z,7.30
2022-10-26T02:14:00.916Z,6.90
2022-10-26T02:16:58.165Z,6.70
2022-10-26T02:19:36.427Z,6.78
2022-10-26T02:22:21.637Z,7.10
2022-10-26T02:24:51.314Z,6.68
2022-10-26T02:27:23.927Z,6.65
2022-10-26T02:29:54.412Z,6.85
2022-10-26T02:32:23.571Z,6.63
2022-10-26T02:34:52.507Z,6.78
2022-10-26T02:37:21.720Z,6.40
2022-10-26T02:39:51.666Z,6.80
2022-10-26T02:42:19.439Z,6.97
2022-10-26T02:44:54.395Z,6.93
2022-10-26T02:47:21.401Z,7.18
2022-10-26T02:49:47.980Z,6.88
2022-10-26T02:52:39.558Z,6.60
2022-10-26T02:55:14.816Z,6.78
2022-10-26T02:57:45.009Z,7.43
2022-10-26T03:00:15.148Z,7.47
2022-10-26T03:02:47.572Z,6.90
2022-10-26T03:05:20.432Z,7.13
2022-10-26T03:07:46.857Z,7.18
2022-10-26T03:10:13.283Z,6.88
2022-10-26T03:12:39.673Z,7.13
2022-10-26T03:15:06.567Z,6.38
2022-10-26T03:17:33.003Z,7.40
2022-10-26T03:19:59.536Z,6.85
2022-10-26T03:22:26.015Z,6.80
2022-10-26T03:24:52.468Z,7.65
2022-10-26T03:27:18.918Z,6.97
2022-10-26T03:29:45.437Z,7.32
2022-10-26T03:32:11.995Z,7.28
2022-10-26T03:34:38.483Z,6.57
2022-10-26T03:37:05.112Z,6.88
2022-10-26T03:39:31.629Z,7.25
2022-10-26T03:41:58.219Z,6.82
2022-10-26T03:44:24.630Z,7.68
2022-10-26T03:46:51.104Z,7.68
2022-10-26T03:49:17.561Z,7.45
2022-10-26T03:51:43.954Z,7.57
2022-10-26T03:54:10.360Z,6.60
2022-10-26T03:56:36.797Z,7.05
2022-10-26T03:59:03.242Z,7.13
2022-10-26T04:01:29.720Z,7.45
2022-10-26T04:03:56.233Z,7.35
2022-10-26T04:06:22.744Z,7.00
2022-10-26T04:08:49.211Z,6.82
2022-10-26T04:11:15.668Z,7.65
2022-10-26T04:13:42.093Z,7.28
2022-10-26T04:16:08.593Z,6.68
2022-10-26T04:18:38.195Z,6.47
2022-10-26T04:21:07.300Z,7.53
2022-10-26T04:23:34.060Z,6.78
2022-10-26T04:28:26.912Z,6.75
2022-10-26T04:30:53.317Z,8.23
2022-10-26T04:33:19.749Z,6.47
2022-10-26T04:35:46.393Z,7.07
2022-10-26T04:40:39.163Z,6.57
2022-10-26T04:43:05.670Z,6.45
2022-10-26T04:45:32.243Z,6.38
2022-10-26T04:48:03.704Z,6.75
2022-10-26T04:50:30.458Z,6.53
2022-10-26T04:55:24.225Z,6.57
2022-10-26T04:57:50.890Z,7.20
2022-10-26T05:00:18.110Z,6.70
2022-10-26T06:49:11.323Z,8.02
2022-10-26T06:51:50.294Z,7.05
2022-10-26T06:54:37.028Z,8.82
2022-10-26T06:57:11.710Z,7.78
2022-10-26T06:59:47.688Z,8.40
2022-10-26T07:19:55.804Z,8.43
2022-10-26T07:23:01.228Z,7.95
2022-10-26T07:33:35.874Z,7.72
2022-10-26T07:36:11.058Z,7.45
2022-10-26T07:50:39.999Z,7.85
2022-10-26T07:53:13.261Z,9.38
2022-10-26T07:59:49.510Z,7.72
2022-10-26T08:53:36.314Z,13.45
2022-10-26T08:56:43.918Z,11.93
2022-10-26T08:59:29.382Z,14.07
2022-10-26T09:01:56.101Z,12.77
2022-10-26T09:06:58.471Z,15.70
2022-10-26T09:09:54.734Z,16.65
2022-10-26T09:12:48.485Z,16.70
2022-10-26T09:15:45.703Z,15.25
2022-10-26T09:18:37.523Z,15.18
2022-10-26T09:21:36.467Z,15.57
2022-10-26T09:24:28.276Z,14.50
2022-10-26T09:26:59.370Z,13.75
2022-10-26T09:29:44.933Z,11.48
2022-10-26T10:15:46.099Z,8.52
2022-10-26T10:53:33.615Z,4.80
2022-10-26T11:15:07.639Z,3.95
2022-10-26T11:18:02.043Z,4.43
2022-10-26T11:20:31.392Z,3.83
2022-10-26T11:27:08.272Z,3.60
2022-10-26T11:29:51.333Z,3.75
2022-10-26T11:43:43.460Z,2.97
2022-10-26T11:46:25.860Z,3.00
2022-10-26T11:49:53.271Z,3.28
2022-10-26T11:57:29.810Z,4.22
2022-10-26T12:07:31.624Z,2.58
2022-10-26T12:10:00.584Z,3.50
2022-10-26T12:12:44.509Z,3.38
2022-10-26T12:16:04.551Z,2.80
2022-10-26T12:22:44.393Z,2.63
2022-10-26T12:25:15.110Z,2.40
2022-10-26T12:30:47.150Z,2.60
2022-10-26T12:34:03.327Z,2.90
2022-10-26T12:37:05.287Z,2.72
2022-10-26T12:39:50.139Z,2.38
2022-10-26T12:42:16.740Z,2.63
2022-10-26T12:45:39.892Z,2.33
2022-10-26T12:48:39.045Z,2.47
2022-10-26T12:51:27.482Z,2.30
2022-10-26T14:03:23.368Z,1.73
2022-10-26T14:12:51.792Z,1.10
2022-10-26T14:16:00.839Z,1.90
2022-10-26T14:19:01.492Z,1.83
2022-10-26T14:21:31.335Z,1.65
2022-10-26T15:06:06.325Z,1.33
2022-10-26T15:49:47.511Z,1.63
2022-10-26T15:59:42.776Z,1.45
2022-10-26T16:02:19.675Z,1.42
2022-10-26T16:04:55.062Z,1.50
2022-10-26T16:08:43.014Z,1.42
2022-10-26T16:11:35.130Z,1.85
2022-10-26T16:14:21.860Z,1.55
2022-10-26T16:16:54.743Z,1.48
2022-10-26T16:38:14.666Z,1.75
2022-10-26T16:40:54.281Z,1.73
2022-10-26T16:43:26.765Z,2.20
2022-10-26T16:46:01.983Z,2.03
2022-10-26T17:01:18.799Z,1.67
2022-10-26T17:03:23.935Z,2.28
2022-10-26T17:06:08.719Z,1.98
2022-10-26T21:21:06.631Z,3.72
2022-10-26T21:23:35.756Z,4.38
2022-10-26T21:26:14.454Z,4.00
2022-10-26T21:28:45.905Z,4.47
2022-10-26T21:31:16.808Z,5.20
2022-10-26T21:33:45.658Z,5.82
2022-10-26T21:36:15.237Z,4.03
2022-10-26T21:38:44.065Z,5.78
2022-10-26T21:41:19.031Z,5.03
2022-10-26T21:43:49.055Z,4.18
2022-10-26T21:46:17.078Z,3.95
2022-10-26T21:48:43.854Z,4.20
2022-10-26T21:51:17.043Z,3.92
2022-10-26T21:53:43.738Z,4.57
2022-10-26T21:56:19.139Z,3.85
2022-10-26T21:58:46.387Z,4.18
2022-10-26T22:01:17.894Z,4.18
2022-10-26T22:03:49.356Z,4.13
2022-10-26T22:08:47.611Z,4.10
2022-10-26T22:11:25.016Z,4.85
2022-10-26T22:16:25.705Z,4.78
2022-10-26T22:18:54.290Z,4.10
2022-10-26T22:21:22.374Z,4.63
2022-10-26T22:23:49.045Z,4.03
2022-10-26T22:26:20.530Z,4.90
2022-10-26T22:28:50.039Z,4.45
2022-10-26T22:31:19.300Z,4.05
2022-10-26T22:33:46.287Z,4.65
2022-10-26T22:38:41.319Z,4.00
2022-10-26T22:41:08.659Z,4.30
2022-10-26T22:43:35.838Z,4.45
2022-10-26T22:46:07.628Z,4.15
2022-10-26T22:48:34.995Z,4.38
2022-10-26T22:51:09.640Z,4.10
2022-10-26T22:53:36.803Z,4.80
2022-10-26T22:56:05.736Z,4.50
2022-10-26T22:58:44.785Z,4.68
2022-10-26T23:01:19.921Z,4.65
2022-10-26T23:03:47.003Z,3.90
2022-10-26T23:06:16.891Z,4.28
2022-10-26T23:08:44.465Z,4.70
2022-10-26T23:11:14.367Z,4.68
2022-10-26T23:13:41.082Z,4.20
2022-10-26T23:16:10.473Z,5.32
2022-10-26T23:18:37.421Z,4.80
2022-10-26T23:21:08.773Z,4.40
2022-10-26T23:23:36.431Z,5.45
2022-10-26T23:26:08.938Z,4.68
2022-10-26T23:28:36.373Z,4.63
2022-10-26T23:31:03.201Z,5.07
2022-10-26T23:35:57.428Z,4.82
2022-10-26T23:38:24.808Z,5.05
2022-10-26T23:40:57.956Z,4.50
2022-10-26T23:43:25.314Z,4.25
2022-10-26T23:45:52.111Z,4.97
2022-10-26T23:50:48.437Z,5.13
2022-10-26T23:53:15.950Z,5.03
2022-10-26T23:55:46.896Z,4.88
2022-10-26T23:58:14.702Z,5.18
